Weather reports worldwide

Advertisment
Ross-on-Wye, United Kingdom (99207): temperature & dewpoint: 17.01.2019 02:00:00 - 23.01.2019 02:00:00 (GMT)Ross-on-Wye, United Kingdom (99207): temperature -20cm: 17.01.2019 02:00:00 - 23.01.2019 02:00:00 (GMT)Ross-on-Wye, United Kingdom (99207): wind speed: 17.01.2019 02:00:00 - 23.01.2019 02:00:00 (GMT)Ross-on-Wye, United Kingdom (99207): wind direction: 17.01.2019 02:00:00 - 23.01.2019 02:00:00 (GMT)Ross-on-Wye, United Kingdom (99207): sunshine duration: 17.01.2019 02:00:00 - 23.01.2019 02:00:00 (GMT)Ross-on-Wye, United Kingdom (99207): precipitation: 17.01.2019 02:00:00 - 23.01.2019 02:00:00 (GMT)
Date & Time tt [°C] td [°C] tt -20cm [°C] ff [km/h] ff [kn] dd sd [min] rr [mm]
23.01.2019 02:00:00 - - - - - - - 0,0
23.01.2019 01:00:00 0,5 -0,8 - 8 4 SW 0 0,0
23.01.2019 00:00:00 0,1 -1,1 - 9 5 SSW - 0,0
22.01.2019 23:00:00 0,1 -1,4 - 8 4 SSW 0 0,0
22.01.2019 22:00:00 -0,2 -1,3 - 2 1 SSW 0 0,0
22.01.2019 21:00:00 0,8 -0,9 - 8 4 SW 0 0,0
22.01.2019 20:00:00 1,5 -0,5 - 5 3 SW 0 0,0
22.01.2019 19:00:00 2,0 -0,6 - 8 4 SW 0 0,0
22.01.2019 18:00:00 2,8 -0,2 - 5 3 SW 0 0,0
22.01.2019 17:00:00 2,6 0,1 - 8 4 SW 0 0,0
22.01.2019 16:00:00 3,8 1,2 - 9 5 WSW 12 0,0
22.01.2019 15:00:00 4,4 2,3 - 5 3 SW 18 0,8
22.01.2019 14:00:00 4,1 1,4 - 11 6 SW 0 0,0
22.01.2019 13:00:00 3,8 0,5 - 9 5 SW 0 0,0
22.01.2019 12:00:00 3,7 0,3 - 9 5 SSW 0 0,0
22.01.2019 11:00:00 3,4 0,3 - 8 4 SSW 0 0,0
22.01.2019 10:00:00 2,9 -0,1 - 5 3 SSW 30 0,0
22.01.2019 09:00:00 1,9 -0,3 5,2 8 4 SSW 0 0,0
22.01.2019 08:00:00 1,9 -0,5 - 9 5 WSW 0 0,0
22.01.2019 07:00:00 1,4 -0,6 - 11 6 SSW 0 0,0
22.01.2019 06:00:00 1,9 -0,7 - 9 5 SSW 0 0,0
22.01.2019 05:00:00 1,9 -0,6 - 8 4 SSW 0 0,0
22.01.2019 04:00:00 1,6 0,2 - 8 4 SW 0 0,0
22.01.2019 03:00:00 2,0 0,6 - 5 3 WSW 0 0,0
22.01.2019 02:00:00 2,7 0,8 - 8 4 WSW 0 0,0
22.01.2019 01:00:00 3,5 1,8 - 8 4 WSW 0 0,0
22.01.2019 00:00:00 4,9 3,1 - 21 11 WSW - 2,4
21.01.2019 23:00:00 5,9 4,1 - 22 12 SSW 0 0,2
21.01.2019 22:00:00 6,0 3,4 - 13 7 SSW 0 0,0
21.01.2019 21:00:00 5,9 3,4 - 15 8 SSW 0 0,0
21.01.2019 20:00:00 5,9 3,5 - 16 9 SSW 0 0,0
21.01.2019 19:00:00 5,6 3,2 - 16 9 SSW 0 0,0
21.01.2019 18:00:00 5,2 3,2 - 16 9 SSW 0 0,0
21.01.2019 17:00:00 5,2 2,6 - 13 7 SSW 0 0,0
21.01.2019 16:00:00 5,3 2,2 - 9 5 S 0 0,0
21.01.2019 15:00:00 5,5 1,8 - 15 8 SSW 0 0,0
21.01.2019 14:00:00 5,8 2,2 - 11 6 SSW 0 0,0
21.01.2019 13:00:00 5,8 2,3 - 11 6 SSW 0 0,0
21.01.2019 12:00:00 5,4 2,9 - 13 7 SW 36 0,0
21.01.2019 11:00:00 5,0 3,7 - 9 5 SSW 30 0,0
21.01.2019 10:00:00 3,4 3,4 - 2 1 SE 0 0,0
21.01.2019 09:00:00 2,6 2,6 5,7 4 2 E 0 0,0
21.01.2019 08:00:00 2,5 2,5 - 4 2 SE 0 0,0
21.01.2019 07:00:00 2,1 2,1 - 2 1 SW 0 0,0
21.01.2019 06:00:00 2,0 1,9 - 2 1 NE 0 0,0
21.01.2019 05:00:00 2,0 1,9 - 2 1 ESE 0 0,0
21.01.2019 04:00:00 1,9 1,8 - 4 2 SW 0 0,0
21.01.2019 03:00:00 1,6 1,4 - 2 1 E 0 0,0
21.01.2019 02:00:00 1,8 1,7 - 2 1 WNW 0 0,0
21.01.2019 01:00:00 1,9 1,6 - 0 0 N 0 0,0
21.01.2019 00:00:00 3,1 2,9 - 4 2 SW - 0,0
20.01.2019 23:00:00 3,4 3,1 - 2 1 NNW 0 0,0
20.01.2019 22:00:00 3,6 3,3 - 2 1 S 0 0,0
20.01.2019 21:00:00 3,5 3,1 - 4 2 NNW 0 0,0
20.01.2019 20:00:00 3,9 3,4 - 4 2 E 0 0,0
20.01.2019 19:00:00 4,4 3,8 - 2 1 NW 0 0,0
20.01.2019 18:00:00 4,7 4,0 - 2 1 NNE 0 0,0
20.01.2019 17:00:00 4,6 3,8 - 2 1 ESE 0 0,0
20.01.2019 16:00:00 5,0 3,9 - 2 1 NE 0 0,0
20.01.2019 15:00:00 5,2 3,3 - 2 1 NNW 0 0,0
20.01.2019 14:00:00 5,4 3,4 - 2 1 ENE 0 0,0
20.01.2019 13:00:00 5,3 3,4 - 2 1 ENE 0 0,0
20.01.2019 12:00:00 5,0 3,4 - 2 1 E 0 0,0
20.01.2019 11:00:00 4,4 3,1 - 5 3 ENE 0 0,0
20.01.2019 10:00:00 4,1 3,1 - 4 2 E 0 0,0
20.01.2019 09:00:00 3,9 3,4 5,7 4 2 ENE 0 0,0
20.01.2019 08:00:00 4,0 3,5 - 5 3 ENE 0 0,0
20.01.2019 07:00:00 3,9 3,4 - 2 1 ENE 0 0,0
20.01.2019 06:00:00 4,2 3,8 - 2 1 E 0 0,0
20.01.2019 05:00:00 4,3 4,0 - 4 2 ENE 0 0,0
20.01.2019 04:00:00 4,2 3,8 - 2 1 E 0 0,0
20.01.2019 03:00:00 4,0 3,6 - 2 1 S 0 0,0
20.01.2019 02:00:00 4,3 3,8 - 2 1 SE 0 0,0
20.01.2019 01:00:00 4,8 4,4 - 2 1 E 0 0,0
20.01.2019 00:00:00 5,1 4,7 - 5 3 ENE - 0,0
19.01.2019 23:00:00 5,2 4,7 - 4 2 ENE 0 0,0
19.01.2019 22:00:00 5,2 4,8 - 4 2 ENE 0 0,0
19.01.2019 21:00:00 5,2 4,7 - 4 2 E 0 0,0
19.01.2019 20:00:00 5,2 4,5 - 5 3 ENE 0 0,0
19.01.2019 19:00:00 5,4 4,5 - 4 2 E 0 0,0
19.01.2019 18:00:00 5,9 4,9 - 5 3 E 0 0,0
19.01.2019 17:00:00 6,0 5,1 - 5 3 E 0 0,0
19.01.2019 16:00:00 6,3 5,3 - 4 2 ESE 0 0,0
19.01.2019 15:00:00 6,2 5,3 - 8 4 SE 0 0,0
19.01.2019 14:00:00 6,3 5,4 - 9 5 SE 0 0,0
19.01.2019 13:00:00 6,3 5,2 - 8 4 ESE 0 0,0
19.01.2019 12:00:00 5,8 4,9 - 13 7 SE 0 0,2
19.01.2019 11:00:00 5,7 4,9 - 8 4 ESE 0 0,4
19.01.2019 10:00:00 5,3 4,5 - 8 4 ESE 0 1,0
19.01.2019 09:00:00 5,2 4,3 5,0 8 4 SE 0 0,0
19.01.2019 08:00:00 5,1 4,2 - 13 7 SE 0 0,0
19.01.2019 07:00:00 5,1 4,1 - 15 8 SE 0 0,0
19.01.2019 06:00:00 5,0 4,0 - 15 8 SE 0 0,0
19.01.2019 05:00:00 4,9 3,9 - 13 7 SE 0 0,0
19.01.2019 04:00:00 4,8 3,9 - 15 8 SE 0 0,4
19.01.2019 03:00:00 4,7 3,7 - 11 6 SE 0 0,0
19.01.2019 02:00:00 4,5 3,4 - 9 5 SSE 0 0,0
19.01.2019 01:00:00 4,2 3,0 - 11 6 SE 0 0,2
19.01.2019 00:00:00 4,4 2,6 - 21 11 SE - 0,0
18.01.2019 23:00:00 4,1 1,9 - 9 5 SSE 0 0,0
18.01.2019 22:00:00 3,7 1,3 - 16 9 SSE 0 0,0
18.01.2019 21:00:00 3,1 0,9 - 18 10 SE 0 0,0
18.01.2019 20:00:00 2,5 0,6 - 4 2 SE 0 0,6
18.01.2019 19:00:00 2,1 0,8 - 9 5 S 0 1,6
18.01.2019 18:00:00 3,2 0,2 - 11 6 S 0 0,4
18.01.2019 17:00:00 4,4 0,3 - 9 5 SSE 0 0,0
18.01.2019 16:00:00 5,0 0,2 - 9 5 S 0 0,0
18.01.2019 15:00:00 5,7 0,1 - 11 6 S 0 0,0
18.01.2019 14:00:00 6,0 0,7 - 9 5 S 0 0,0
18.01.2019 13:00:00 5,2 1,2 - 13 7 SE 0 0,0
18.01.2019 12:00:00 4,3 1,3 - 11 6 SSE 0 0,0
18.01.2019 11:00:00 3,6 0,5 - 9 5 S 0 0,0
18.01.2019 10:00:00 3,7 -1,1 - 13 7 SE 0 0,0
18.01.2019 09:00:00 3,0 -1,7 4,7 11 6 SE 0 0,0
18.01.2019 08:00:00 2,6 -2,1 - 16 9 SE 0 0,0
18.01.2019 07:00:00 1,9 -2,8 - 8 4 SE 0 0,0
18.01.2019 06:00:00 2,1 -3,2 - 5 3 S 0 0,0
18.01.2019 05:00:00 1,8 -3,0 - 8 4 SSE 0 0,0
18.01.2019 04:00:00 -0,7 -1,8 - 5 3 SW 0 0,0
18.01.2019 03:00:00 -1,3 -1,9 - 2 1 W 0 0,0
18.01.2019 02:00:00 -1,2 -1,9 - 4 2 E 0 0,0
18.01.2019 01:00:00 -1,3 -2,1 - 4 2 SSW 0 0,0
18.01.2019 00:00:00 -1,1 -2,2 - 2 1 S - 0,0
17.01.2019 23:00:00 -0,6 -2,1 - 4 2 E 0 0,0
17.01.2019 22:00:00 -0,6 -2,3 - 4 2 ESE 0 0,0
17.01.2019 21:00:00 -0,6 -2,4 - 4 2 ESE 0 0,0
17.01.2019 20:00:00 0,5 -2,4 - 4 2 SW 0 0,0
17.01.2019 19:00:00 1,5 -2,5 - 5 3 SSW 0 0,0
17.01.2019 18:00:00 1,5 -2,4 - 5 3 SW 0 0,0
17.01.2019 17:00:00 2,6 -3,2 - 4 2 NNW 0 0,0
17.01.2019 16:00:00 4,2 -2,7 - 5 3 NNW 6 0,0
17.01.2019 15:00:00 5,6 -2,2 - 8 4 NNW 60 0,0
17.01.2019 14:00:00 5,6 -2,5 - 9 5 NNW 54 0,0
17.01.2019 13:00:00 5,0 -2,0 - 9 5 NW 60 0,0
17.01.2019 12:00:00 4,4 -2,4 - 9 5 WNW 60 0,0
17.01.2019 11:00:00 3,4 -3,1 - 5 3 WNW 60 0,0
17.01.2019 10:00:00 2,3 -2,7 - 4 2 N 54 0,0
17.01.2019 09:00:00 1,6 -2,3 6,0 11 6 N 0 0,0
17.01.2019 08:00:00 2,5 -1,7 - 13 7 N 0 0,0
17.01.2019 07:00:00 3,7 1,0 - 11 6 N 0 0,0
17.01.2019 06:00:00 3,5 1,0 - 9 5 W 0 0,0
17.01.2019 05:00:00 2,7 0,7 - 9 5 W 0 0,0
17.01.2019 04:00:00 2,2 0,7 - 9 5 SW 0 0,0
17.01.2019 03:00:00 2,7 1,0 - 9 5 WSW 0 0,0
17.01.2019 02:00:00 2,8 1,5 - 5 3 W 0 0,0

tt = temperature
td = dewpoint
tt -20cm = temperature -20cm
ff = wind speed
dd = wind direction
sd = sunshine duration
rr = precipitation

Next stations